createdAt,value
2023-11-27T00:00:05.706Z,-7.57
2023-11-27T00:02:37.141Z,-7.47
2023-11-27T00:05:06.522Z,-7.38
2023-11-27T00:07:35.130Z,-7.31
2023-11-27T00:10:03.735Z,-7.40
2023-11-27T00:12:32.348Z,-7.43
2023-11-27T00:15:00.753Z,-7.45
2023-11-27T00:17:29.349Z,-7.52
2023-11-27T00:19:59.418Z,-7.51
2023-11-27T00:22:28.062Z,-7.40
2023-11-27T00:24:56.689Z,-7.45
2023-11-27T00:27:25.343Z,-7.36
2023-11-27T00:29:53.855Z,-7.40
2023-11-27T00:32:22.547Z,-7.31
2023-11-27T00:34:51.125Z,-7.41
2023-11-27T00:37:22.060Z,-7.49
2023-11-27T00:39:52.160Z,-7.61
2023-11-27T00:42:21.976Z,-7.65
2023-11-27T00:44:50.607Z,-7.71
2023-11-27T00:47:19.766Z,-7.70
2023-11-27T00:49:48.494Z,-7.58
2023-11-27T00:52:17.353Z,-7.64
2023-11-27T00:54:49.122Z,-7.48
2023-11-27T00:57:17.711Z,-7.38
2023-11-27T00:59:46.392Z,-7.43
2023-11-27T01:02:15.715Z,-7.49
2023-11-27T01:04:44.579Z,-7.44
2023-11-27T01:07:13.201Z,-7.39
2023-11-27T01:09:42.094Z,-7.43
2023-11-27T01:12:12.761Z,-7.44
2023-11-27T01:14:41.854Z,-7.47
2023-11-27T01:17:10.461Z,-7.49
2023-11-27T01:19:39.503Z,-7.55
2023-11-27T01:22:08.673Z,-7.61
2023-11-27T01:24:36.241Z,-7.64
2023-11-27T01:27:05.181Z,-7.58
2023-11-27T01:29:35.205Z,-7.54
2023-11-27T01:32:03.729Z,-7.66
2023-11-27T01:34:33.983Z,-7.69
2023-11-27T01:37:02.977Z,-7.72
2023-11-27T01:39:31.646Z,-7.66
2023-11-27T01:42:00.139Z,-7.66
2023-11-27T01:44:28.717Z,-7.66
2023-11-27T01:46:59.633Z,-7.67
2023-11-27T01:49:28.038Z,-7.72
2023-11-27T01:51:57.387Z,-7.80
2023-11-27T01:54:26.158Z,-7.83
2023-11-27T01:56:55.841Z,-7.85
2023-11-27T01:59:26.090Z,-7.85
2023-11-27T02:01:55.216Z,-7.90
2023-11-27T02:04:25.399Z,-7.89
2023-11-27T02:06:54.399Z,-8.02
2023-11-27T02:09:22.956Z,-7.97
2023-11-27T02:11:53.412Z,-7.94
2023-11-27T02:14:22.329Z,-7.94
2023-11-27T02:16:51.171Z,-7.86
2023-11-27T02:19:19.898Z,-7.94
2023-11-27T02:21:50.951Z,-7.87
2023-11-27T02:24:20.770Z,-7.91
2023-11-27T02:26:49.368Z,-7.97
2023-11-27T02:29:18.083Z,-7.91
2023-11-27T02:31:47.445Z,-7.84
2023-11-27T02:34:18.761Z,-7.92
2023-11-27T02:36:47.536Z,-8.01
2023-11-27T02:39:16.468Z,-7.97
2023-11-27T02:41:46.813Z,-8.06
2023-11-27T02:44:15.591Z,-8.01
2023-11-27T02:46:44.399Z,-7.98
2023-11-27T03:04:42.500Z,-7.95
2023-11-27T03:07:11.436Z,-7.93
2023-11-27T03:09:39.957Z,-7.97
2023-11-27T03:12:09.471Z,-7.89
2023-11-27T03:14:38.541Z,-7.88
2023-11-27T03:17:07.205Z,-7.96
2023-11-27T03:19:47.067Z,-8.06
2023-11-27T03:22:18.129Z,-8.07
2023-11-27T03:24:46.955Z,-8.04
2023-11-27T03:27:15.932Z,-8.03
2023-11-27T03:29:44.532Z,-7.94
2023-11-27T03:32:13.253Z,-8.01
2023-11-27T03:34:41.889Z,-8.04
2023-11-27T03:37:10.600Z,-7.95
2023-11-27T03:39:40.593Z,-7.97
2023-11-27T03:42:09.279Z,-7.98
2023-11-27T03:44:37.875Z,-8.04
2023-11-27T03:47:06.759Z,-8.02
2023-11-27T03:49:37.499Z,-8.02
2023-11-27T03:52:06.656Z,-8.09
2023-11-27T03:54:35.320Z,-8.01
2023-11-27T03:57:05.562Z,-8.00
2023-11-27T03:59:34.211Z,-8.00
2023-11-27T04:02:03.340Z,-8.01
2023-11-27T04:04:32.167Z,-8.02
2023-11-27T04:07:01.747Z,-8.00
2023-11-27T04:09:30.276Z,-7.97
2023-11-27T04:11:58.991Z,-8.00
2023-11-27T04:14:29.292Z,-7.92
2023-11-27T04:16:58.918Z,-7.90
2023-11-27T04:19:28.404Z,-7.98
2023-11-27T04:21:57.146Z,-8.02
2023-11-27T04:24:25.729Z,-8.00
2023-11-27T04:26:54.293Z,-7.92
2023-11-27T04:29:23.238Z,-7.89
2023-11-27T04:31:53.372Z,-7.91
2023-11-27T04:34:22.408Z,-7.82
2023-11-27T04:36:51.052Z,-7.83
2023-11-27T04:39:19.983Z,-7.84
2023-11-27T04:41:49.343Z,-7.94
2023-11-27T04:44:20.420Z,-7.95
2023-11-27T04:46:49.118Z,-7.93
2023-11-27T04:49:19.173Z,-7.97
2023-11-27T04:51:47.926Z,-7.97
2023-11-27T04:54:16.472Z,-8.00
2023-11-27T04:56:45.789Z,-7.98
2023-11-27T04:59:15.080Z,-7.94
2023-11-27T05:01:44.067Z,-7.93
2023-11-27T05:04:17.850Z,-7.94
2023-11-27T05:06:48.114Z,-7.94
2023-11-27T05:09:17.577Z,-7.94
2023-11-27T05:11:46.346Z,-7.89
2023-11-27T05:14:14.988Z,-7.82
2023-11-27T05:16:43.599Z,-7.79
2023-11-27T05:19:12.188Z,-7.78
2023-11-27T05:21:40.805Z,-7.83
2023-11-27T05:24:10.801Z,-7.88
2023-11-27T05:26:39.480Z,-7.90
2023-11-27T05:29:08.138Z,-7.88
2023-11-27T05:31:36.866Z,-7.78
2023-11-27T05:34:05.732Z,-7.74
2023-11-27T05:36:34.550Z,-7.80
2023-11-27T05:39:03.170Z,-7.68
2023-11-27T05:41:33.196Z,-7.80
2023-11-27T05:44:04.102Z,-7.86
2023-11-27T05:46:32.721Z,-7.86
2023-11-27T05:49:01.513Z,-7.88
2023-11-27T05:51:30.411Z,-7.87
2023-11-27T05:53:58.971Z,-7.85
2023-11-27T05:56:27.500Z,-7.85
2023-11-27T05:58:57.462Z,-7.82
2023-11-27T06:01:26.123Z,-7.82
2023-11-27T06:03:54.703Z,-7.75
2023-11-27T06:06:23.836Z,-7.81
2023-11-27T06:08:52.417Z,-7.80
2023-11-27T06:11:21.010Z,-7.81
2023-11-27T06:13:49.530Z,-7.79
2023-11-27T06:16:19.587Z,-7.84
2023-11-27T06:18:48.227Z,-7.86
2023-11-27T06:21:17.133Z,-7.83
2023-11-27T06:23:45.778Z,-7.86
2023-11-27T06:26:14.915Z,-7.72
2023-11-27T06:28:43.596Z,-7.75
2023-11-27T06:31:12.386Z,-7.80
2023-11-27T06:33:43.504Z,-7.73
2023-11-27T06:36:13.122Z,-7.72
2023-11-27T06:38:41.635Z,-7.74
2023-11-27T06:41:10.277Z,-7.72
2023-11-27T06:43:40.644Z,-7.67
2023-11-27T06:46:13.345Z,-7.78
2023-11-27T06:48:43.644Z,-7.71
2023-11-27T06:51:12.341Z,-7.66
2023-11-27T06:53:40.867Z,-7.66
2023-11-27T06:56:11.382Z,-7.70
2023-11-27T06:58:40.159Z,-7.74
2023-11-27T07:01:12.360Z,-7.67
2023-11-27T07:03:42.509Z,-7.49
2023-11-27T07:06:11.899Z,-7.58
2023-11-27T07:08:40.432Z,-7.60
2023-11-27T07:11:10.983Z,-7.58
2023-11-27T07:13:39.648Z,-7.62
2023-11-27T07:16:09.529Z,-7.64
2023-11-27T07:18:38.227Z,-7.63
2023-11-27T07:21:08.647Z,-7.64
2023-11-27T07:23:41.393Z,-7.63
2023-11-27T07:26:11.228Z,-7.68
2023-11-27T07:28:42.313Z,-7.62
2023-11-27T07:31:12.376Z,-7.56
2023-11-27T07:33:41.038Z,-7.55
2023-11-27T07:36:12.745Z,-7.56
2023-11-27T07:38:42.598Z,-7.45
2023-11-27T07:41:11.448Z,-7.51
2023-11-27T07:43:40.105Z,-7.38
2023-11-27T07:46:12.484Z,-7.38
2023-11-27T07:48:41.675Z,-7.27
2023-11-27T07:51:12.059Z,-7.40
2023-11-27T07:53:40.823Z,-7.39
2023-11-27T07:56:10.401Z,-7.32
2023-11-27T07:58:40.134Z,-7.36
2023-11-27T08:01:09.504Z,-7.30
2023-11-27T08:03:39.877Z,-7.26
2023-11-27T08:06:10.433Z,-7.23
2023-11-27T08:08:40.610Z,-7.20
2023-11-27T08:11:10.945Z,-7.22
2023-11-27T08:13:40.217Z,-7.11
2023-11-27T08:16:09.534Z,-7.14
2023-11-27T08:18:41.703Z,-7.22
2023-11-27T08:21:12.230Z,-7.22
2023-11-27T08:23:44.643Z,-7.07
2023-11-27T08:26:15.820Z,-7.13
2023-11-27T08:28:45.161Z,-7.18
2023-11-27T08:31:14.044Z,-7.28
2023-11-27T08:33:43.487Z,-7.21
2023-11-27T08:36:13.049Z,-7.24
2023-11-27T08:38:43.186Z,-7.25
2023-11-27T08:41:13.125Z,-7.26
2023-11-27T08:43:42.747Z,-7.23
2023-11-27T08:46:11.413Z,-7.19
2023-11-27T08:48:40.028Z,-7.19
2023-11-27T08:51:13.268Z,-7.11
2023-11-27T08:53:46.597Z,-7.05
2023-11-27T08:56:19.591Z,-7.09
2023-11-27T08:58:49.252Z,-7.04
2023-11-27T09:01:18.437Z,-7.04
2023-11-27T09:03:47.683Z,-7.16
2023-11-27T09:06:20.911Z,-6.95
2023-11-27T09:08:51.469Z,-6.98
2023-11-27T09:11:25.141Z,-6.99
2023-11-27T09:13:55.454Z,-6.88
2023-11-27T09:16:27.333Z,-6.90
2023-11-27T09:18:56.340Z,-6.88
2023-11-27T09:21:25.210Z,-6.82
2023-11-27T09:23:58.374Z,-6.94
2023-11-27T09:26:30.039Z,-6.87
2023-11-27T09:29:04.299Z,-6.90
2023-11-27T09:31:40.131Z,-6.98
2023-11-27T09:34:09.400Z,-6.78
2023-11-27T09:36:38.664Z,-6.80
2023-11-27T09:39:12.797Z,-6.87
2023-11-27T09:41:44.495Z,-6.77
2023-11-27T09:44:16.838Z,-6.97
2023-11-27T09:46:48.390Z,-6.85
2023-11-27T09:49:20.836Z,-6.90
2023-11-27T09:51:53.952Z,-6.92
2023-11-27T09:54:28.686Z,-6.86
2023-11-27T09:56:57.905Z,-6.95
2023-11-27T09:59:30.529Z,-6.92
2023-11-27T10:02:03.516Z,-7.00
2023-11-27T10:04:32.857Z,-7.01
2023-11-27T10:07:04.615Z,-6.89
2023-11-27T10:09:35.576Z,-6.98
2023-11-27T10:12:04.572Z,-7.02
2023-11-27T10:14:37.994Z,-7.04
2023-11-27T10:17:13.928Z,-7.13
2023-11-27T10:19:43.249Z,-7.10
2023-11-27T10:22:13.850Z,-7.08
2023-11-27T10:24:45.211Z,-7.23
2023-11-27T10:27:14.155Z,-7.22
2023-11-27T10:29:46.053Z,-7.30
2023-11-27T10:32:14.795Z,-7.25
2023-11-27T10:34:46.241Z,-7.24
2023-11-27T10:37:15.204Z,-7.35
2023-11-27T10:39:49.904Z,-7.28
2023-11-27T10:42:24.571Z,-7.22
2023-11-27T10:44:53.555Z,-7.27
2023-11-27T10:47:23.743Z,-7.21
2023-11-27T10:49:56.630Z,-7.16
2023-11-27T10:52:27.308Z,-7.12
2023-11-27T10:55:05.178Z,-6.99
2023-11-27T10:57:40.422Z,-7.05
2023-11-27T11:00:10.656Z,-7.05
2023-11-27T11:02:40.646Z,-7.03
2023-11-27T11:05:16.430Z,-7.02
2023-11-27T11:07:48.422Z,-7.06
2023-11-27T11:10:27.841Z,-7.08
2023-11-27T11:13:00.856Z,-6.86
2023-11-27T11:15:37.092Z,-6.92
2023-11-27T11:18:13.821Z,-6.93
2023-11-27T11:20:59.589Z,-7.01
2023-11-27T11:23:34.189Z,-7.01
2023-11-27T11:26:41.577Z,-7.00
2023-11-27T11:29:25.071Z,-6.80
2023-11-27T11:32:01.758Z,-6.78
2023-11-27T11:34:34.321Z,-6.69
2023-11-27T11:37:05.222Z,-6.68
2023-11-27T11:39:34.211Z,-6.77
2023-11-27T11:42:06.151Z,-6.95
2023-11-27T11:44:38.034Z,-6.81
2023-11-27T11:47:27.796Z,-6.92
2023-11-27T11:50:20.512Z,-6.88
2023-11-27T11:52:52.187Z,-6.89
2023-11-27T11:55:27.864Z,-6.84
2023-11-27T11:58:05.360Z,-6.87
2023-11-27T12:00:45.833Z,-6.81
2023-11-27T12:03:18.698Z,-6.81
2023-11-27T12:05:51.921Z,-6.79
2023-11-27T12:08:23.178Z,-6.78
2023-11-27T12:10:52.846Z,-6.75
2023-11-27T12:13:25.496Z,-6.69
2023-11-27T12:15:57.968Z,-6.72
2023-11-27T12:18:27.931Z,-6.64
2023-11-27T12:21:00.114Z,-6.61
2023-11-27T12:23:39.925Z,-6.60
2023-11-27T12:26:09.531Z,-6.74
2023-11-27T12:28:40.083Z,-6.64
2023-11-27T12:31:09.299Z,-6.78
2023-11-27T12:33:40.908Z,-6.83
2023-11-27T12:36:11.111Z,-6.79
2023-11-27T12:38:43.034Z,-6.79
2023-11-27T12:41:13.912Z,-6.81
2023-11-27T12:43:44.114Z,-6.80
2023-11-27T12:46:14.964Z,-6.79
2023-11-27T12:48:45.285Z,-6.79
2023-11-27T12:51:19.997Z,-6.73
2023-11-27T12:53:51.518Z,-6.77
2023-11-27T12:56:26.075Z,-6.63
2023-11-27T12:58:56.432Z,-6.76
2023-11-27T13:01:28.589Z,-6.73
2023-11-27T13:03:57.927Z,-6.76
2023-11-27T13:06:29.165Z,-6.73
2023-11-27T13:08:58.171Z,-6.79
2023-11-27T13:11:33.391Z,-6.79
2023-11-27T13:14:09.386Z,-6.76
2023-11-27T13:16:38.761Z,-6.87
2023-11-27T13:19:08.692Z,-6.90
2023-11-27T13:21:40.473Z,-6.87
2023-11-27T13:24:15.030Z,-6.83
2023-11-27T13:26:44.914Z,-6.85
2023-11-27T13:29:16.254Z,-6.83
2023-11-27T13:31:45.386Z,-6.89
2023-11-27T13:34:33.854Z,-6.87
2023-11-27T13:37:09.502Z,-6.83
2023-11-27T13:39:41.881Z,-6.87
2023-11-27T13:42:11.288Z,-6.84
2023-11-27T13:44:46.366Z,-6.83
2023-11-27T13:47:21.906Z,-6.83
2023-11-27T13:49:56.781Z,-6.85
2023-11-27T13:52:31.392Z,-6.82
2023-11-27T13:55:02.503Z,-6.81
2023-11-27T13:57:34.312Z,-6.75
2023-11-27T14:00:22.250Z,-6.75
2023-11-27T14:02:52.704Z,-6.73
2023-11-27T14:05:23.186Z,-6.77
2023-11-27T14:07:53.892Z,-6.76
2023-11-27T14:10:33.277Z,-6.76
2023-11-27T14:13:09.925Z,-6.71
2023-11-27T14:15:49.093Z,-6.71
2023-11-27T14:18:46.397Z,-6.67
2023-11-27T14:21:35.124Z,-6.66
2023-11-27T14:24:14.028Z,-6.64
2023-11-27T14:27:15.973Z,-6.61
2023-11-27T14:29:47.023Z,-6.61
2023-11-27T14:32:19.458Z,-6.59
2023-11-27T14:34:53.297Z,-6.57
2023-11-27T14:37:23.107Z,-6.52
2023-11-27T14:39:52.435Z,-6.48
2023-11-27T14:42:21.914Z,-6.49
2023-11-27T14:44:50.897Z,-6.48
2023-11-27T14:47:25.838Z,-6.42
2023-11-27T14:50:02.326Z,-6.40
2023-11-27T14:52:39.539Z,-6.39
2023-11-27T14:55:13.810Z,-6.38
2023-11-27T14:57:42.816Z,-6.37
2023-11-27T15:00:21.109Z,-6.35
2023-11-27T15:02:51.671Z,-6.31
2023-11-27T15:05:20.509Z,-6.34
2023-11-27T15:07:50.263Z,-6.34
2023-11-27T15:10:20.851Z,-6.33
2023-11-27T15:12:52.272Z,-6.34
2023-11-27T15:15:24.255Z,-6.31
2023-11-27T15:17:57.974Z,-6.27
2023-11-27T15:20:29.449Z,-6.30
2023-11-27T15:22:58.444Z,-6.27
2023-11-27T15:25:27.373Z,-6.25
2023-11-27T15:27:57.523Z,-6.24
2023-11-27T15:30:33.226Z,-6.22
2023-11-27T15:33:04.229Z,-6.22
2023-11-27T15:35:39.268Z,-6.19
2023-11-27T15:38:13.614Z,-6.16
2023-11-27T15:40:42.843Z,-6.18
2023-11-27T15:43:11.765Z,-6.17
2023-11-27T15:45:42.599Z,-6.18
2023-11-27T15:48:14.054Z,-6.19
2023-11-27T15:50:42.989Z,-6.22
2023-11-27T15:53:14.314Z,-6.21
2023-11-27T15:55:43.508Z,-6.20
2023-11-27T15:58:12.390Z,-6.20
2023-11-27T16:00:44.287Z,-6.19
2023-11-27T16:03:14.599Z,-6.20
2023-11-27T16:05:43.775Z,-6.21
2023-11-27T16:08:12.577Z,-6.18
2023-11-27T16:10:50.923Z,-6.17
2023-11-27T16:13:19.848Z,-6.17
2023-11-27T16:15:48.739Z,-6.15
2023-11-27T16:18:21.885Z,-6.15
2023-11-27T16:20:50.824Z,-6.14
2023-11-27T16:23:19.430Z,-6.13
2023-11-27T16:25:50.668Z,-6.14
2023-11-27T16:28:19.746Z,-6.11
2023-11-27T16:30:50.529Z,-6.13
2023-11-27T16:33:20.814Z,-6.11
2023-11-27T16:35:49.527Z,-6.12
2023-11-27T16:38:18.478Z,-6.13
2023-11-27T16:40:47.441Z,-6.12
2023-11-27T16:43:16.069Z,-6.15
2023-11-27T16:45:45.069Z,-6.15
2023-11-27T16:48:16.663Z,-6.18
2023-11-27T16:50:51.372Z,-6.16
2023-11-27T16:53:26.483Z,-6.15
2023-11-27T16:55:57.101Z,-6.18
2023-11-27T16:58:26.477Z,-6.15
2023-11-27T17:00:55.292Z,-6.16
2023-11-27T17:03:24.254Z,-6.15
2023-11-27T17:05:55.603Z,-6.15
2023-11-27T17:08:31.056Z,-6.15
2023-11-27T17:10:59.950Z,-6.15
2023-11-27T17:13:28.838Z,-6.10
2023-11-27T17:15:57.591Z,-6.08
2023-11-27T17:18:26.403Z,-6.09
2023-11-27T17:20:56.667Z,-6.08
2023-11-27T17:23:26.979Z,-6.08
2023-11-27T17:25:56.036Z,-6.08
2023-11-27T17:28:25.910Z,-6.09
2023-11-27T17:30:55.164Z,-6.11
2023-11-27T17:33:25.611Z,-6.10
2023-11-27T17:35:55.810Z,-6.10
2023-11-27T17:38:24.444Z,-6.09
2023-11-27T17:40:53.280Z,-6.08
2023-11-27T17:43:22.319Z,-6.07
2023-11-27T17:45:55.285Z,-6.07
2023-11-27T17:48:24.101Z,-6.06
2023-11-27T17:50:53.169Z,-6.07
2023-11-27T17:53:23.595Z,-6.08
2023-11-27T17:55:57.746Z,-6.05
2023-11-27T17:58:27.604Z,-6.07
2023-11-27T18:00:56.636Z,-6.07
2023-11-27T18:03:25.612Z,-6.07
2023-11-27T18:05:54.193Z,-6.08
2023-11-27T18:08:24.499Z,-6.07
2023-11-27T18:10:52.992Z,-6.08
2023-11-27T18:13:21.781Z,-6.08
2023-11-27T18:15:50.460Z,-6.08
2023-11-27T18:18:20.152Z,-6.08
2023-11-27T18:20:49.825Z,-6.06
2023-11-27T18:23:23.229Z,-6.06
2023-11-27T18:25:54.500Z,-6.06
2023-11-27T18:28:24.387Z,-6.08
2023-11-27T18:30:53.070Z,-6.05
2023-11-27T18:33:21.833Z,-6.03
2023-11-27T18:35:52.677Z,-6.05
2023-11-27T18:38:20.273Z,-6.03
2023-11-27T18:40:53.098Z,-6.03
2023-11-27T18:43:23.730Z,-6.04
2023-11-27T18:45:54.586Z,-6.02
2023-11-27T18:48:23.329Z,-6.01
2023-11-27T19:06:56.335Z,-6.03
2023-11-27T19:09:29.445Z,-6.06
2023-11-27T19:11:58.851Z,-6.06
2023-11-27T19:14:29.010Z,-6.09
2023-11-27T19:16:57.937Z,-6.09
2023-11-27T19:19:26.761Z,-6.12
2023-11-27T19:21:56.986Z,-6.13
2023-11-27T19:24:40.956Z,-6.15
2023-11-27T19:27:10.024Z,-6.17
2023-11-27T19:29:38.714Z,-6.17
2023-11-27T19:32:08.579Z,-6.19
2023-11-27T19:34:38.718Z,-6.22
2023-11-27T19:37:09.805Z,-6.24
2023-11-27T19:39:38.363Z,-6.24
2023-11-27T19:42:07.329Z,-6.28
2023-11-27T19:44:36.005Z,-6.28
2023-11-27T19:47:06.122Z,-6.29
2023-11-27T19:49:36.601Z,-6.33
2023-11-27T19:52:07.206Z,-6.35
2023-11-27T19:54:39.235Z,-6.35
2023-11-27T19:57:11.648Z,-6.36
2023-11-27T19:59:45.983Z,-6.36
2023-11-27T20:02:14.941Z,-6.38
2023-11-27T20:04:45.232Z,-6.41
2023-11-27T20:07:14.661Z,-6.41
2023-11-27T20:09:47.480Z,-6.43
2023-11-27T20:12:16.396Z,-6.44
2023-11-27T20:14:45.267Z,-6.45
2023-11-27T20:17:16.476Z,-6.47
2023-11-27T20:19:52.384Z,-6.49
2023-11-27T20:22:27.936Z,-6.49
2023-11-27T20:24:59.382Z,-6.52
2023-11-27T20:27:30.231Z,-6.51
2023-11-27T20:30:01.581Z,-6.56
2023-11-27T20:32:33.446Z,-6.53
2023-11-27T20:35:03.030Z,-6.56
2023-11-27T20:37:34.338Z,-6.58
2023-11-27T20:40:15.779Z,-6.58
2023-11-27T20:42:44.716Z,-6.60
2023-11-27T20:45:13.529Z,-6.60
2023-11-27T20:47:44.910Z,-6.62
2023-11-27T20:50:15.936Z,-6.63
2023-11-27T20:52:46.418Z,-6.60
2023-11-27T20:55:17.300Z,-6.61
2023-11-27T20:57:46.051Z,-6.68
2023-11-27T21:00:19.729Z,-6.66
2023-11-27T21:02:48.518Z,-6.68
2023-11-27T21:05:17.463Z,-6.69
2023-11-27T21:07:46.232Z,-6.68
2023-11-27T21:10:16.625Z,-6.68
2023-11-27T21:12:47.626Z,-6.71
2023-11-27T21:15:17.168Z,-6.75
2023-11-27T21:17:45.972Z,-6.77
2023-11-27T21:20:17.893Z,-6.79
2023-11-27T21:22:46.866Z,-6.78
2023-11-27T21:25:18.799Z,-6.80
2023-11-27T21:27:49.233Z,-6.83
2023-11-27T21:30:19.393Z,-6.85
2023-11-27T21:32:49.265Z,-6.86
2023-11-27T21:35:18.675Z,-6.88
2023-11-27T21:37:48.617Z,-6.90
2023-11-27T21:40:20.530Z,-6.89
2023-11-27T21:42:49.285Z,-6.90
2023-11-27T21:45:18.176Z,-6.93
2023-11-27T21:47:47.074Z,-6.90
2023-11-27T21:50:16.392Z,-6.97
2023-11-27T21:52:45.337Z,-6.97
2023-11-27T21:55:14.208Z,-7.01
2023-11-27T21:57:44.419Z,-7.05
2023-11-27T22:00:17.204Z,-7.04
2023-11-27T22:02:46.601Z,-7.09
2023-11-27T22:05:15.701Z,-7.15
2023-11-27T22:07:50.819Z,-7.18
2023-11-27T22:10:22.003Z,-7.17
2023-11-27T22:12:52.263Z,-7.21
2023-11-27T22:15:21.611Z,-7.22
2023-11-27T22:17:50.435Z,-7.21
2023-11-27T22:20:19.504Z,-7.24
2023-11-27T22:22:48.515Z,-7.24
2023-11-27T22:25:17.332Z,-7.23
2023-11-27T22:27:48.927Z,-7.26
2023-11-27T22:30:20.146Z,-7.24
2023-11-27T22:32:49.793Z,-7.26
2023-11-27T22:35:18.636Z,-7.27
2023-11-27T22:37:47.478Z,-7.30
2023-11-27T22:40:16.361Z,-7.32
2023-11-27T22:42:45.754Z,-7.30
2023-11-27T22:45:18.933Z,-7.32
2023-11-27T22:47:50.823Z,-7.35
2023-11-27T22:50:19.821Z,-7.37
2023-11-27T22:52:48.607Z,-7.36
2023-11-27T22:55:17.477Z,-7.37
2023-11-27T22:57:49.119Z,-7.40
2023-11-27T23:00:23.965Z,-7.42
2023-11-27T23:02:53.402Z,-7.43
2023-11-27T23:05:22.351Z,-7.46
2023-11-27T23:07:51.142Z,-7.47
2023-11-27T23:10:19.915Z,-7.47
2023-11-27T23:12:48.474Z,-7.49
2023-11-27T23:15:17.153Z,-7.50
2023-11-27T23:17:48.170Z,-7.51
2023-11-27T23:20:16.960Z,-7.52
2023-11-27T23:22:45.366Z,-7.55
2023-11-27T23:25:14.154Z,-7.51
2023-11-27T23:27:42.762Z,-7.54
2023-11-27T23:30:12.065Z,-7.54
2023-11-27T23:32:40.623Z,-7.55
2023-11-27T23:35:10.937Z,-7.56
2023-11-27T23:37:39.567Z,-7.55
2023-11-27T23:40:09.670Z,-7.58
2023-11-27T23:42:38.177Z,-7.56
2023-11-27T23:45:07.690Z,-7.58
2023-11-27T23:47:36.337Z,-7.58
2023-11-27T23:50:05.631Z,-7.61
2023-11-27T23:52:35.769Z,-7.61
2023-11-27T23:55:04.827Z,-7.56
2023-11-27T23:57:33.435Z,-7.58
